Time;durP1;ratioP1;P1;durP2;ratioP2;P2;SDS_P1;SDS_P2;PMS_P1;PMS_P2;Temp;Humidity;BMP_temperature;BMP_pressure;BME280_temperature;BME280_humidity;BME280_pressure;Samples;Min_cycle;Max_cycle;Signal;HPM_P1;HPM_P2
2023/12/26 00:00:57;;;;;;;1.25;0.80;;;;;;;3.80;100.00;92784.63;2088924;27;22077;-78
2023/12/26 00:01:58;;;;;;;1.10;0.80;;;;;;;4.00;100.00;92785.72;2100924;27;20023;-79
2023/12/26 00:03:01;;;;;;;1.27;0.90;;;;;;;3.98;100.00;92776.66;2109115;27;20047;-80
2023/12/26 00:04:03;;;;;;;2.08;1.27;;;;;;;4.13;100.00;92772.84;2111878;27;20024;-79
2023/12/26 00:05:05;;;;;;;2.47;0.80;;;;;;;4.59;100.00;92776.44;2115543;27;20020;-79
2023/12/26 00:06:06;;;;;;;1.55;0.80;;;;;;;4.72;100.00;92770.31;2115004;28;20032;-80
2023/12/26 00:07:07;;;;;;;2.90;0.88;;;;;;;4.86;100.00;92766.09;2113362;28;20028;-79
2023/12/26 00:08:08;;;;;;;1.00;0.80;;;;;;;4.86;100.00;92769.47;2114475;28;20070;-78
2023/12/26 00:09:12;;;;;;;3.30;0.90;;;;;;;4.80;100.00;92771.03;2114652;28;20019;-78
2023/12/26 00:10:15;;;;;;;1.65;1.05;;;;;;;4.86;100.00;92764.19;2114718;28;20026;-80
2023/12/26 00:11:16;;;;;;;2.70;1.45;;;;;;;4.88;100.00;92767.22;2107000;28;20028;-79
2023/12/26 00:12:17;;;;;;;0.95;0.80;;;;;;;4.89;100.00;92762.66;2106313;28;20384;-79
2023/12/26 00:13:18;;;;;;;2.17;0.80;;;;;;;4.88;100.00;92759.28;2112541;28;20084;-80
2023/12/26 00:14:19;;;;;;;3.13;1.13;;;;;;;4.86;100.00;92766.09;2114830;28;20038;-79
2023/12/26 00:15:20;;;;;;;3.17;1.10;;;;;;;4.87;100.00;92764.94;2106219;28;20487;-79
2023/12/26 00:16:21;;;;;;;2.05;0.90;;;;;;;4.90;100.00;92754.31;2106478;28;20074;-79
2023/12/26 00:17:22;;;;;;;1.80;0.80;;;;;;;4.93;100.00;92760.75;2119349;27;20083;-78
2023/12/26 00:18:23;;;;;;;3.22;0.90;;;;;;;5.09;100.00;92761.00;2117662;27;21733;-78
2023/12/26 00:19:24;;;;;;;4.05;0.95;;;;;;;5.19;100.00;92762.09;2113502;28;20022;-80
2023/12/26 00:20:25;;;;;;;1.52;0.90;;;;;;;5.24;100.00;92757.13;2123071;27;20023;-79
2023/12/26 00:21:26;;;;;;;2.33;0.90;;;;;;;5.35;100.00;92754.38;2114093;28;20030;-78
2023/12/26 00:22:27;;;;;;;1.52;0.88;;;;;;;5.74;100.00;92753.28;2114967;28;20019;-79
2023/12/26 00:23:28;;;;;;;1.65;0.93;;;;;;;5.82;100.00;92757.38;2115259;28;20023;-79
2023/12/26 00:24:30;;;;;;;3.17;0.98;;;;;;;5.87;100.00;92759.59;2125152;27;20019;-80
2023/12/26 00:25:31;;;;;;;4.60;1.02;;;;;;;5.77;100.00;92760.47;2115452;27;20023;-78
2023/12/26 00:26:32;;;;;;;1.73;0.85;;;;;;;5.74;100.00;92755.94;2116617;27;20035;-79
2023/12/26 00:27:33;;;;;;;2.10;0.98;;;;;;;5.70;100.00;92755.97;2106047;28;20079;-79
2023/12/26 00:28:34;;;;;;;2.38;1.13;;;;;;;5.62;100.00;92746.59;2098184;28;20028;-78
2023/12/26 00:29:35;;;;;;;1.95;1.05;;;;;;;5.72;100.00;92761.66;2114853;28;20024;-78
2023/12/26 00:30:37;;;;;;;1.20;0.75;;;;;;;5.89;100.00;92756.56;2113720;28;20031;-77
2023/12/26 00:31:40;;;;;;;2.03;0.88;;;;;;;5.84;100.00;92759.63;2119878;27;20023;-78
2023/12/26 00:32:41;;;;;;;3.08;1.10;;;;;;;5.94;100.00;92764.13;2117036;27;20027;-80
2023/12/26 00:33:42;;;;;;;3.67;1.17;;;;;;;5.92;100.00;92767.16;2119691;27;20080;-78
2023/12/26 00:34:43;;;;;;;1.50;0.93;;;;;;;5.86;100.00;92766.06;2123615;27;20027;-79
2023/12/26 00:35:44;;;;;;;1.55;0.93;;;;;;;5.88;100.00;92771.72;2106107;28;20115;-78
2023/12/26 00:36:45;;;;;;;1.33;1.10;;;;;;;5.98;100.00;92770.16;2106015;28;20055;-80
2023/12/26 00:37:45;;;;;;;1.65;0.73;;;;;;;6.07;100.00;92772.34;2123572;27;20020;-78
2023/12/26 00:38:47;;;;;;;2.38;1.00;;;;;;;6.04;100.00;92768.56;2132201;27;20018;-78
2023/12/26 00:39:48;;;;;;;3.47;0.95;;;;;;;6.17;100.00;92772.22;2122822;27;20031;-79
2023/12/26 00:40:49;;;;;;;2.58;0.93;;;;;;;6.18;100.00;92765.00;2123571;27;20027;-80
2023/12/26 00:41:50;;;;;;;2.25;0.90;;;;;;;6.13;100.00;92773.41;2132710;27;20103;-79
2023/12/26 00:42:51;;;;;;;2.15;0.70;;;;;;;6.05;100.00;92770.06;2131484;27;20030;-79
2023/12/26 00:43:52;;;;;;;1.85;1.08;;;;;;;6.05;100.00;92775.38;2122636;27;20027;-80
2023/12/26 00:44:53;;;;;;;2.13;0.90;;;;;;;5.95;100.00;92755.75;2122588;27;20027;-79
2023/12/26 00:45:54;;;;;;;1.10;0.90;;;;;;;5.82;100.00;92760.03;2114078;28;20035;-78
2023/12/26 00:46:54;;;;;;;3.28;1.00;;;;;;;5.78;100.00;92764.63;2114459;27;20031;-80
2023/12/26 00:47:57;;;;;;;2.05;0.98;;;;;;;5.93;100.00;92766.03;2125842;27;20029;-79
2023/12/26 00:48:58;;;;;;;1.30;0.90;;;;;;;5.86;100.00;92765.31;2113720;28;20016;-79
2023/12/26 00:49:59;;;;;;;1.48;0.80;;;;;;;5.82;100.00;92765.34;2114991;27;20372;-79
2023/12/26 00:51:00;;;;;;;3.67;0.90;;;;;;;5.80;100.00;92757.78;2109086;28;20115;-80
2023/12/26 00:52:03;;;;;;;3.40;1.20;;;;;;;6.28;100.00;92762.25;2115155;27;20472;-80
2023/12/26 00:53:05;;;;;;;4.30;1.20;;;;;;;6.27;100.00;92752.00;2123391;27;20039;-80
2023/12/26 00:54:06;;;;;;;2.20;1.10;;;;;;;6.38;100.00;92749.25;2106539;28;20495;-79
2023/12/26 00:55:08;;;;;;;3.95;1.33;;;;;;;6.61;100.00;92749.31;2105180;28;20110;-81
2023/12/26 00:56:09;;;;;;;2.67;1.23;;;;;;;6.41;100.00;92741.25;2097145;28;20013;-78
2023/12/26 00:57:10;;;;;;;2.58;1.13;;;;;;;5.97;100.00;92742.09;2100951;28;20435;-80
2023/12/26 00:58:11;;;;;;;1.90;0.88;;;;;;;5.95;100.00;92750.47;2118029;27;20023;-80
2023/12/26 00:59:11;;;;;;;1.50;0.88;;;;;;;5.84;100.00;92755.09;2108638;28;20071;-79
2023/12/26 01:00:14;;;;;;;2.72;0.95;;;;;;;5.75;100.00;92754.78;2117957;27;20031;-79
2023/12/26 01:01:15;;;;;;;2.17;1.00;;;;;;;5.69;100.00;92740.47;2115443;27;20611;-78
2023/12/26 01:02:16;;;;;;;2.33;1.05;;;;;;;5.73;100.00;92744.59;2115522;27;20031;-78
2023/12/26 01:03:20;;;;;;;5.40;1.15;;;;;;;5.80;100.00;92743.78;2106204;28;20016;-79
2023/12/26 01:04:22;;;;;;;1.08;0.90;;;;;;;5.86;100.00;92752.81;2107480;28;20030;-80
2023/12/26 01:05:23;;;;;;;3.90;1.05;;;;;;;5.79;100.00;92744.91;2104568;28;20028;-79
2023/12/26 01:06:24;;;;;;;3.30;1.20;;;;;;;5.67;100.00;92746.16;2109054;28;20031;-79
2023/12/26 01:07:25;;;;;;;1.80;0.88;;;;;;;5.52;100.00;92744.78;2113038;28;20027;-80
2023/12/26 01:08:26;;;;;;;4.15;1.23;;;;;;;5.54;100.00;92740.59;2104574;28;20016;-79
2023/12/26 01:09:27;;;;;;;1.48;0.80;;;;;;;5.59;100.00;92744.72;2098040;28;20024;-79
2023/12/26 01:10:28;;;;;;;1.85;0.80;;;;;;;5.60;100.00;92745.47;2111401;28;20035;-81
2023/12/26 01:11:29;;;;;;;2.97;0.88;;;;;;;5.99;100.00;92742.47;2125839;27;20113;-79
2023/12/26 01:12:30;;;;;;;2.20;1.17;;;;;;;5.98;100.00;92740.97;2113970;28;20518;-80
2023/12/26 01:13:34;;;;;;;2.08;1.00;;;;;;;5.88;100.00;92737.22;2106284;28;20570;-79
2023/12/26 01:14:35;;;;;;;1.15;0.90;;;;;;;5.71;100.00;92738.94;2106208;28;20024;-79
2023/12/26 01:15:38;;;;;;;1.77;1.00;;;;;;;5.74;100.00;92743.44;2105877;28;20114;-79
2023/12/26 01:16:39;;;;;;;2.97;1.10;;;;;;;5.90;100.00;92740.25;2114822;27;20015;-79
2023/12/26 01:17:40;;;;;;;2.65;1.00;;;;;;;5.94;100.00;92740.25;2110554;28;20036;-79
2023/12/26 01:18:41;;;;;;;1.95;1.25;;;;;;;5.92;100.00;92740.63;2113982;28;20027;-78
2023/12/26 01:19:42;;;;;;;2.92;0.98;;;;;;;5.98;100.00;92741.72;2121798;27;20579;-79
2023/12/26 01:20:43;;;;;;;1.98;1.00;;;;;;;5.84;100.00;92747.16;2122086;27;20410;-78
2023/12/26 01:21:44;;;;;;;2.50;1.10;;;;;;;5.90;100.00;92745.56;2122049;27;20027;-79
2023/12/26 01:22:45;;;;;;;1.55;0.88;;;;;;;5.82;100.00;92749.44;2131497;27;20026;-79
2023/12/26 01:23:46;;;;;;;1.48;0.95;;;;;;;5.85;100.00;92746.00;2122508;27;20027;-79
2023/12/26 01:24:49;;;;;;;2.38;1.08;;;;;;;5.90;100.00;92739.50;2112043;28;20041;-80
2023/12/26 01:25:50;;;;;;;2.78;0.90;;;;;;;5.51;100.00;92738.72;2106453;28;20032;-78
2023/12/26 01:26:51;;;;;;;1.65;0.95;;;;;;;5.69;100.00;92749.16;2112218;28;20410;-79
2023/12/26 01:27:52;;;;;;;3.83;1.08;;;;;;;5.84;100.00;92747.16;2122508;27;20031;-79
2023/12/26 01:28:53;;;;;;;3.33;1.40;;;;;;;5.86;100.00;92744.09;2132217;27;20034;-79
2023/12/26 01:29:54;;;;;;;2.63;1.00;;;;;;;5.71;100.00;92752.19;2114822;28;20038;-78
2023/12/26 01:30:55;;;;;;;1.23;0.93;;;;;;;5.43;100.00;92757.72;2110831;27;20030;-78
2023/12/26 01:31:56;;;;;;;3.00;1.02;;;;;;;5.66;100.00;92755.25;2122407;27;20360;-80
2023/12/26 01:32:57;;;;;;;4.18;1.30;;;;;;;5.59;100.00;92747.38;2110106;28;20027;-80
2023/12/26 01:33:57;;;;;;;1.30;0.80;;;;;;;5.71;100.00;92752.19;2105463;28;20024;-79
2023/12/26 01:34:58;;;;;;;2.78;0.80;;;;;;;5.51;100.00;92759.94;2103398;28;20020;-80
2023/12/26 01:35:59;;;;;;;2.90;1.00;;;;;;;5.47;100.00;92767.16;2114000;28;20028;-80
2023/12/26 01:37:00;;;;;;;1.25;1.00;;;;;;;5.45;100.00;92761.50;2105918;28;20027;-79
2023/12/26 01:38:02;;;;;;;1.92;0.77;;;;;;;5.37;100.00;92760.06;2114553;27;20031;-78
2023/12/26 01:39:03;;;;;;;2.22;1.20;;;;;;;5.26;100.00;92756.72;2127325;27;20381;-79
2023/12/26 01:40:05;;;;;;;1.98;1.20;;;;;;;5.06;100.00;92769.75;2127712;27;20431;-80
2023/12/26 01:41:06;;;;;;;2.03;1.02;;;;;;;5.02;100.00;92771.66;2122957;27;20034;-79
2023/12/26 01:42:07;;;;;;;1.90;1.20;;;;;;;5.05;100.00;92771.66;2118169;27;20023;-79
2023/12/26 01:43:08;;;;;;;0.98;0.73;;;;;;;5.01;100.00;92776.22;2117989;27;20688;-78
2023/12/26 01:44:09;;;;;;;1.27;0.90;;;;;;;5.19;100.00;92772.69;2122147;27;20426;-79
2023/12/26 01:45:10;;;;;;;4.07;2.30;;;;;;;5.22;100.00;92774.53;2120655;27;20023;-80
2023/12/26 01:46:12;;;;;;;4.00;3.08;;;;;;;5.13;100.00;92769.69;2123125;27;20027;-78
2023/12/26 01:47:14;;;;;;;4.60;2.55;;;;;;;5.03;100.00;92773.16;2124666;27;20049;-80
2023/12/26 01:48:15;;;;;;;6.15;1.80;;;;;;;4.76;100.00;92775.59;2125943;27;20015;-80
2023/12/26 01:49:16;;;;;;;3.38;1.10;;;;;;;5.15;100.00;92774.59;2105712;28;20020;-79
2023/12/26 01:50:18;;;;;;;2.08;0.90;;;;;;;5.21;100.00;92778.34;2105724;28;20028;-78
2023/12/26 01:51:21;;;;;;;0.90;0.77;;;;;;;5.07;100.00;92778.44;2118280;27;20019;-80
2023/12/26 01:52:22;;;;;;;3.20;1.30;;;;;;;5.25;100.00;92781.72;2116703;27;20054;-80
2023/12/26 01:53:23;;;;;;;2.30;0.80;;;;;;;5.15;100.00;92785.94;2106030;28;20024;-79
2023/12/26 01:54:33;;;;;;;3.55;1.30;;;;;;;5.22;100.00;92785.13;2114310;28;20466;-79
2023/12/26 01:55:36;;;;;;;4.13;1.17;;;;;;;5.48;100.00;92789.88;2114382;27;20766;-80
2023/12/26 01:56:37;;;;;;;1.00;0.90;;;;;;;5.42;100.00;92780.09;2106798;28;20031;-79
2023/12/26 01:57:39;;;;;;;2.47;0.90;;;;;;;5.38;100.00;92782.00;2121636;27;20895;-79
2023/12/26 01:58:41;;;;;;;2.38;1.13;;;;;;;5.33;100.00;92782.44;2122712;27;20074;-79
2023/12/26 01:59:42;;;;;;;1.80;1.00;;;;;;;5.25;100.00;92784.38;2120344;27;20034;-79
2023/12/26 02:00:43;;;;;;;2.53;0.93;;;;;;;5.33;100.00;92787.72;2117719;27;20089;-79
2023/12/26 02:01:44;;;;;;;1.52;1.27;;;;;;;5.18;100.00;92785.19;2114177;28;20449;-79
2023/12/26 02:02:46;;;;;;;2.05;0.90;;;;;;;5.27;100.00;92788.16;2105593;28;20059;-79
2023/12/26 02:03:47;;;;;;;1.40;0.98;;;;;;;5.08;100.00;92785.25;2105195;28;20039;-80
2023/12/26 02:04:48;;;;;;;2.95;1.10;;;;;;;5.22;100.00;92798.38;2098661;28;20020;-79
2023/12/26 02:05:49;;;;;;;1.58;1.10;;;;;;;4.89;100.00;92791.78;2114115;28;20130;-80
2023/12/26 02:06:50;;;;;;;2.42;0.98;;;;;;;5.04;100.00;92787.91;2122378;27;20501;-79
2023/12/26 02:07:53;;;;;;;2.28;1.20;;;;;;;5.14;100.00;92789.75;2105056;28;20898;-81
2023/12/26 02:08:54;;;;;;;1.58;1.13;;;;;;;5.08;100.00;92795.84;2105462;28;20058;-79
2023/12/26 02:09:54;;;;;;;1.67;0.98;;;;;;;4.94;100.00;92796.69;2113572;28;20024;-79
2023/12/26 02:10:55;;;;;;;1.80;1.10;;;;;;;4.78;100.00;92799.78;2114442;28;20030;-79
2023/12/26 02:11:57;;;;;;;2.53;0.98;;;;;;;4.63;100.00;92788.53;2116884;27;20060;-79
2023/12/26 02:12:58;;;;;;;3.05;1.10;;;;;;;4.56;100.00;92796.47;2113700;28;20016;-79
2023/12/26 02:13:58;;;;;;;1.50;1.08;;;;;;;4.42;100.00;92794.66;2114493;28;20058;-79
2023/12/26 02:15:00;;;;;;;1.95;1.00;;;;;;;4.88;100.00;92800.88;2113832;28;20031;-79
2023/12/26 02:16:31;;;;;;;2.97;1.10;;;;;;;5.12;100.00;92791.28;2105380;28;20016;-79
2023/12/26 02:17:34;;;;;;;3.53;1.10;;;;;;;5.58;100.00;92804.19;2113214;27;20088;-78
2023/12/26 02:18:35;;;;;;;2.83;1.15;;;;;;;5.44;100.00;92799.75;2131145;27;20467;-79
2023/12/26 02:19:42;;;;;;;2.53;0.88;;;;;;;5.21;100.00;92805.59;2112003;28;20830;-79
2023/12/26 02:20:43;;;;;;;2.13;0.90;;;;;;;5.23;100.00;92802.56;2109786;27;20492;-79
2023/12/26 02:21:44;;;;;;;3.30;1.40;;;;;;;5.26;100.00;92799.13;2121792;27;20088;-79
2023/12/26 02:22:45;;;;;;;2.47;1.10;;;;;;;5.13;100.00;92806.03;2114175;28;20137;-79
2023/12/26 02:25:16;;;;;;;;;;;;;;;3.57;100.00;92819.41;2146214;27;20105;-80
2023/12/26 02:26:17;;;;;;;1.35;1.10;;;;;;;3.45;100.00;92812.59;2129697;27;20327;-79
2023/12/26 02:27:22;;;;;;;3.28;1.45;;;;;;;3.51;100.00;92816.38;2129692;27;20437;-81
2023/12/26 02:28:24;;;;;;;2.65;1.13;;;;;;;3.57;100.00;92819.41;2119281;28;20035;-80
2023/12/26 02:29:27;;;;;;;4.60;2.28;;;;;;;3.38;100.00;92817.88;2113571;27;20024;-80
2023/12/26 02:30:30;;;;;;;3.83;1.45;;;;;;;3.43;100.00;92817.50;2113045;28;20463;-81
2023/12/26 02:31:34;;;;;;;1.80;1.20;;;;;;;3.80;100.00;92816.34;2120833;27;20142;-80
2023/12/26 02:32:38;;;;;;;2.35;1.17;;;;;;;3.89;100.00;92814.06;2120946;27;20467;-82
2023/12/26 02:33:40;;;;;;;1.35;1.05;;;;;;;3.83;100.00;92815.59;2112543;28;20918;-79
2023/12/26 02:34:41;;;;;;;4.32;1.30;;;;;;;3.83;100.00;92814.84;2120654;27;20023;-79
2023/12/26 02:35:43;;;;;;;2.58;1.23;;;;;;;3.87;100.00;92823.53;2120970;28;20878;-81
2023/12/26 02:36:44;;;;;;;1.73;1.08;;;;;;;3.68;100.00;92814.09;2116646;28;20392;-79
2023/12/26 02:37:46;;;;;;;5.70;1.38;;;;;;;3.61;100.00;92811.47;2112099;28;20081;-80
2023/12/26 02:38:47;;;;;;;4.78;1.15;;;;;;;3.89;100.00;92815.97;2107636;28;20152;-82
2023/12/26 02:39:50;;;;;;;6.22;1.50;;;;;;;3.87;100.00;92816.34;2120298;27;20023;-80
2023/12/26 02:40:52;;;;;;;2.72;1.00;;;;;;;3.70;100.00;92809.94;2121541;28;20034;-81
2023/12/26 02:41:54;;;;;;;2.53;1.50;;;;;;;3.77;100.00;92817.84;2121816;27;20020;-81
2023/12/26 02:42:55;;;;;;;2.20;1.33;;;;;;;3.78;100.00;92821.28;2137546;27;20029;-80
2023/12/26 02:43:56;;;;;;;3.08;1.00;;;;;;;3.76;100.00;92816.34;2126003;27;20034;-80
2023/12/26 02:44:57;;;;;;;2.67;0.85;;;;;;;3.94;100.00;92824.25;2103610;28;20489;-80
2023/12/26 02:45:58;;;;;;;1.90;0.93;;;;;;;3.83;100.00;92820.13;2104012;28;20028;-80
2023/12/26 02:47:00;;;;;;;3.97;1.17;;;;;;;4.12;100.00;92823.47;2112669;27;20058;-80
2023/12/26 02:48:01;;;;;;;1.70;0.90;;;;;;;4.24;100.00;92823.06;2129734;27;20022;-81
2023/12/26 02:49:02;;;;;;;1.90;1.10;;;;;;;4.42;100.00;92818.47;2128957;27;20031;-79
2023/12/26 02:50:06;;;;;;;2.75;1.00;;;;;;;4.32;100.00;92826.44;2114788;28;20389;-80
2023/12/26 02:51:08;;;;;;;1.73;1.00;;;;;;;4.20;100.00;92820.41;2128740;27;20077;-80
2023/12/26 02:52:08;;;;;;;2.00;1.20;;;;;;;4.04;100.00;92828.03;2130218;27;20047;-80
2023/12/26 02:53:10;;;;;;;1.02;0.93;;;;;;;3.97;100.00;92814.81;2121399;28;20407;-80
2023/12/26 02:54:11;;;;;;;0.98;0.80;;;;;;;4.01;100.00;92826.16;2112981;28;20027;-81
2023/12/26 02:55:12;;;;;;;2.10;1.00;;;;;;;3.98;100.00;92826.91;2117166;27;20024;-79
2023/12/26 02:56:13;;;;;;;1.27;1.10;;;;;;;3.84;100.00;92830.31;2120591;27;20099;-81
2023/12/26 02:57:14;;;;;;;2.60;1.10;;;;;;;3.88;100.00;92822.38;2120347;28;20090;-81
2023/12/26 02:58:15;;;;;;;1.35;0.90;;;;;;;3.82;100.00;92821.25;2129624;27;20068;-80
2023/12/26 02:59:16;;;;;;;1.52;1.10;;;;;;;4.12;100.00;92823.47;2112742;28;20097;-80
2023/12/26 03:00:17;;;;;;;2.13;1.10;;;;;;;4.53;100.00;92818.44;2109407;28;20097;-79
2023/12/26 03:01:18;;;;;;;5.95;1.52;;;;;;;4.37;100.00;92823.41;2121014;27;20029;-81
2023/12/26 03:02:29;;;;;;;4.03;1.20;;;;;;;4.24;100.00;92831.75;2121113;27;20463;-79
2023/12/26 03:03:30;;;;;;;1.20;1.00;;;;;;;4.41;100.00;92826.78;2121957;27;20027;-80
2023/12/26 03:04:31;;;;;;;2.78;1.05;;;;;;;4.53;100.00;92827.13;2121169;27;20371;-80
2023/12/26 03:05:32;;;;;;;2.08;1.15;;;;;;;4.77;100.00;92825.50;2129944;27;20042;-80
2023/12/26 03:06:33;;;;;;;2.17;1.15;;;;;;;4.75;100.00;92819.09;2129179;27;20025;-79
2023/12/26 03:07:33;;;;;;;4.00;1.30;;;;;;;4.76;100.00;92823.25;2120126;28;20028;-80
2023/12/26 03:08:34;;;;;;;2.03;1.17;;;;;;;4.60;100.00;92838.81;2112122;28;20024;-79
2023/12/26 03:09:35;;;;;;;1.50;1.38;;;;;;;4.68;100.00;92811.94;2119838;28;20153;-81
2023/12/26 03:10:36;;;;;;;4.63;1.25;;;;;;;4.78;100.00;92828.91;2115732;28;20073;-79
2023/12/26 03:11:37;;;;;;;3.38;1.30;;;;;;;4.90;100.00;92823.19;2112357;28;20032;-80
2023/12/26 03:12:38;;;;;;;2.17;0.95;;;;;;;4.68;100.00;92822.53;2123975;27;20056;-80
2023/12/26 03:13:39;;;;;;;3.35;1.20;;;;;;;4.63;100.00;92820.28;2129972;27;20027;-80
2023/12/26 03:14:40;;;;;;;4.25;1.20;;;;;;;4.59;100.00;92824.09;2120791;27;20023;-80
2023/12/26 03:15:41;;;;;;;3.55;0.85;;;;;;;4.45;100.00;92825.66;2133415;27;20030;-81
2023/12/26 03:16:42;;;;;;;4.53;1.38;;;;;;;4.34;100.00;92816.22;2138873;27;20022;-79
2023/12/26 03:17:43;;;;;;;1.45;1.20;;;;;;;4.32;100.00;92829.09;2128308;27;20077;-82
2023/12/26 03:18:44;;;;;;;2.50;1.20;;;;;;;4.28;100.00;92821.16;2127853;27;20034;-80
2023/12/26 03:19:45;;;;;;;3.20;1.10;;;;;;;4.34;100.00;92818.88;2120096;28;20081;-79
2023/12/26 03:20:46;;;;;;;2.47;1.05;;;;;;;4.30;100.00;92826.81;2106157;28;20028;-81
2023/12/26 03:21:47;;;;;;;2.60;0.98;;;;;;;4.24;100.00;92826.47;2126340;27;20037;-80
2023/12/26 03:22:49;;;;;;;3.35;1.10;;;;;;;4.22;100.00;92833.28;2138338;27;20402;-80
2023/12/26 03:23:51;;;;;;;3.38;1.15;;;;;;;4.22;100.00;92823.44;2129076;27;20120;-80
2023/12/26 03:24:52;;;;;;;2.45;1.27;;;;;;;4.18;100.00;92828.00;2117667;28;20071;-80
2023/12/26 03:25:53;;;;;;;4.38;1.08;;;;;;;4.13;100.00;92830.28;2119643;27;20019;-80
2023/12/26 03:26:54;;;;;;;3.95;1.65;;;;;;;4.08;100.00;92828.75;2119592;28;20050;-80
2023/12/26 03:27:55;;;;;;;2.78;1.35;;;;;;;4.17;100.00;92828.34;2044278;28;20036;-80
2023/12/26 03:28:56;;;;;;;2.00;1.00;;;;;;;4.44;100.00;92829.44;2029109;28;20039;-80
2023/12/26 03:29:56;;;;;;;2.35;0.90;;;;;;;4.55;100.00;92830.13;2046800;27;20050;-79
2023/12/26 03:30:57;;;;;;;3.17;1.10;;;;;;;4.67;100.00;92831.63;2041589;28;20119;-80
2023/12/26 03:32:00;;;;;;;1.73;1.10;;;;;;;4.92;100.00;92831.50;2040130;27;20024;-80
2023/12/26 03:33:01;;;;;;;2.55;1.10;;;;;;;5.07;100.00;92831.41;2055760;28;20899;-79
2023/12/26 03:34:02;;;;;;;3.05;1.25;;;;;;;5.00;100.00;92832.19;2062285;28;20019;-79
2023/12/26 03:35:03;;;;;;;3.90;1.40;;;;;;;4.87;100.00;92829.22;2081026;27;20022;-79
2023/12/26 03:36:05;;;;;;;3.58;1.30;;;;;;;4.81;100.00;92828.13;2074893;27;20085;-78
2023/12/26 03:37:07;;;;;;;2.85;1.27;;;;;;;4.77;100.00;92836.09;2068874;28;20032;-80
2023/12/26 03:38:08;;;;;;;5.93;1.45;;;;;;;4.75;100.00;92825.16;2093311;27;20026;-81
2023/12/26 03:39:09;;;;;;;1.58;1.02;;;;;;;4.69;100.00;92826.69;2084002;28;22120;-79
2023/12/26 03:40:11;;;;;;;1.30;0.82;;;;;;;4.75;100.00;92824.41;2079772;28;20035;-80
2023/12/26 03:41:11;;;;;;;3.30;1.20;;;;;;;4.57;100.00;92826.38;2100526;27;20027;-80
2023/12/26 03:42:12;;;;;;;3.00;1.33;;;;;;;4.61;100.00;92830.50;2107949;27;20019;-79
2023/12/26 03:43:13;;;;;;;3.30;0.98;;;;;;;4.57;100.00;92816.53;2105599;28;20024;-79
2023/12/26 03:44:15;;;;;;;2.63;1.25;;;;;;;4.53;100.00;92829.03;2114585;28;20027;-80
2023/12/26 03:45:16;;;;;;;3.92;1.35;;;;;;;4.44;100.00;92826.78;2114354;27;20027;-81
2023/12/26 03:46:17;;;;;;;4.18;1.17;;;;;;;4.45;100.00;92827.53;2124282;27;20032;-79
2023/12/26 03:47:18;;;;;;;3.67;1.40;;;;;;;4.86;100.00;92825.09;2115179;28;20031;-79
2023/12/26 03:48:20;;;;;;;2.38;1.13;;;;;;;5.27;100.00;92824.50;2114952;27;20024;-81
2023/12/26 03:49:21;;;;;;;4.82;1.30;;;;;;;5.26;100.00;92815.75;2124164;27;20011;-79
2023/12/26 03:50:22;;;;;;;2.75;1.23;;;;;;;5.21;100.00;92818.09;2131942;27;20475;-79
2023/12/26 03:51:23;;;;;;;2.35;1.10;;;;;;;5.08;100.00;92823.06;2123012;27;20019;-79
2023/12/26 03:52:30;;;;;;;3.60;1.45;;;;;;;4.85;100.00;92828.88;2115307;27;20035;-79
2023/12/26 03:53:31;;;;;;;4.07;1.27;;;;;;;4.92;100.00;92826.22;2115309;28;20532;-80
2023/12/26 03:54:33;;;;;;;1.58;1.10;;;;;;;4.84;100.00;92824.72;2097895;28;20075;-80
2023/12/26 03:55:34;;;;;;;1.85;0.95;;;;;;;4.81;100.00;92825.50;2097556;28;20093;-79
2023/12/26 03:56:35;;;;;;;3.88;1.50;;;;;;;4.70;100.00;92822.16;2097824;28;20047;-80
2023/12/26 03:57:37;;;;;;;2.10;1.48;;;;;;;4.69;100.00;92825.91;2113111;28;20047;-80
2023/12/26 03:58:37;;;;;;;2.65;1.42;;;;;;;4.60;100.00;92828.97;2115204;28;20034;-79
2023/12/26 03:59:38;;;;;;;3.97;1.75;;;;;;;4.52;100.00;92836.22;2114677;28;20024;-79
2023/12/26 04:00:39;;;;;;;3.50;1.58;;;;;;;4.42;100.00;92831.69;2114659;28;21010;-81
2023/12/26 04:01:40;;;;;;;3.38;1.50;;;;;;;4.46;100.00;92829.03;2112643;28;20119;-80
2023/12/26 04:02:41;;;;;;;3.05;1.48;;;;;;;4.49;100.00;92836.97;2097128;28;20032;-80
2023/12/26 04:03:42;;;;;;;2.90;1.65;;;;;;;4.35;100.00;92833.63;2060672;28;20067;-79
2023/12/26 04:04:44;;;;;;;2.45;1.90;;;;;;;4.24;100.00;92834.41;2014680;28;20040;-80
2023/12/26 04:05:45;;;;;;;3.20;1.40;;;;;;;4.12;100.00;92836.69;2028733;28;20034;-79
2023/12/26 04:06:46;;;;;;;2.72;1.60;;;;;;;4.12;100.00;92834.03;2024166;28;20040;-79
2023/12/26 04:07:47;;;;;;;6.53;2.70;;;;;;;4.08;100.00;92841.22;2037847;28;20032;-80
2023/12/26 04:08:48;;;;;;;2.58;1.55;;;;;;;4.02;100.00;92844.25;2048546;27;20066;-80
2023/12/26 04:09:49;;;;;;;3.63;1.45;;;;;;;3.90;100.00;92844.66;2043214;28;20143;-80
2023/12/26 04:10:51;;;;;;;6.90;1.58;;;;;;;3.88;100.00;92843.53;2048591;28;20032;-80
2023/12/26 04:11:52;;;;;;;3.25;1.40;;;;;;;3.90;100.00;92838.63;2058193;27;23266;-80
2023/12/26 04:12:53;;;;;;;3.65;1.73;;;;;;;3.97;100.00;92846.53;2066924;28;20110;-80
2023/12/26 04:13:54;;;;;;;2.83;1.55;;;;;;;3.87;100.00;92849.97;2065558;28;20179;-79
2023/12/26 04:14:55;;;;;;;2.42;1.77;;;;;;;3.80;100.00;92842.78;2068949;28;20024;-80
2023/12/26 04:15:56;;;;;;;2.70;1.50;;;;;;;3.76;100.00;92842.78;2064873;28;20028;-79
2023/12/26 04:16:57;;;;;;;1.83;1.33;;;;;;;3.77;100.00;92851.47;2081082;28;20032;-79
2023/12/26 04:17:58;;;;;;;3.90;1.65;;;;;;;3.97;100.00;92847.28;2096286;28;20038;-81
2023/12/26 04:18:59;;;;;;;4.07;1.10;;;;;;;4.03;100.00;92843.13;2098643;28;20122;-80
2023/12/26 04:20:02;;;;;;;2.50;1.17;;;;;;;3.98;100.00;92846.16;2093486;28;20123;-80
2023/12/26 04:21:03;;;;;;;2.22;1.30;;;;;;;3.88;100.00;92839.00;2097251;28;20453;-80
2023/12/26 04:22:04;;;;;;;5.15;1.20;;;;;;;3.83;100.00;92847.31;2119070;27;21319;-81
2023/12/26 04:23:05;;;;;;;2.35;1.30;;;;;;;3.76;100.00;92842.03;2115134;28;20026;-80
2023/12/26 04:24:06;;;;;;;1.63;1.00;;;;;;;3.68;100.00;92845.81;2118205;27;20015;-80
2023/12/26 04:25:07;;;;;;;2.35;1.10;;;;;;;3.60;100.00;92839.78;2114294;28;20074;-79
2023/12/26 04:26:08;;;;;;;3.42;1.20;;;;;;;3.71;100.00;92847.69;2111395;28;20072;-80
2023/12/26 04:27:09;;;;;;;2.85;1.15;;;;;;;3.70;100.00;92849.59;2101049;28;20101;-80
2023/12/26 04:28:10;;;;;;;1.92;1.30;;;;;;;3.67;100.00;92852.22;2106404;28;20464;-81
2023/12/26 04:29:11;;;;;;;1.80;1.20;;;;;;;3.61;100.00;92841.28;2095329;28;20024;-80
2023/12/26 04:30:12;;;;;;;1.63;1.13;;;;;;;3.65;100.00;92849.22;2096517;28;20549;-80
2023/12/26 04:31:13;;;;;;;4.20;1.60;;;;;;;3.68;100.00;92851.84;2063398;28;24141;-81
2023/12/26 04:32:14;;;;;;;2.20;1.13;;;;;;;3.56;100.00;92852.25;2031260;28;20091;-79
2023/12/26 04:33:15;;;;;;;2.08;1.15;;;;;;;3.53;100.00;92848.44;2050536;27;20097;-79
2023/12/26 04:34:16;;;;;;;1.83;1.13;;;;;;;3.66;100.00;92851.47;2045856;27;20170;-79
2023/12/26 04:35:17;;;;;;;3.25;1.38;;;;;;;3.68;100.00;92851.09;2035791;28;20164;-81
2023/12/26 04:36:18;;;;;;;3.67;1.40;;;;;;;3.69;100.00;92845.44;2042905;28;20149;-83
2023/12/26 04:37:19;;;;;;;3.22;0.90;;;;;;;3.68;100.00;92846.56;2051278;28;21960;-81
2023/12/26 04:38:20;;;;;;;3.58;1.05;;;;;;;3.56;100.00;92854.88;2050619;27;20088;-79
2023/12/26 04:39:22;;;;;;;1.52;1.08;;;;;;;3.42;100.00;92854.84;2052273;28;20058;-80
2023/12/26 04:40:23;;;;;;;3.10;1.20;;;;;;;3.32;100.00;92851.06;2053935;28;20484;-80
2023/12/26 04:41:25;;;;;;;3.80;1.30;;;;;;;3.34;100.00;92853.38;2057405;27;20032;-79
2023/12/26 04:42:26;;;;;;;2.22;1.10;;;;;;;3.48;100.00;92863.94;2059292;27;20176;-80
2023/12/26 04:43:27;;;;;;;5.13;1.40;;;;;;;3.61;100.00;92856.41;2063947;27;20024;-80
2023/12/26 04:44:28;;;;;;;3.17;1.10;;;;;;;3.57;100.00;92855.63;2076822;27;20108;-79
2023/12/26 04:45:29;;;;;;;2.97;1.77;;;;;;;3.55;100.00;92856.00;2081051;27;20107;-79
2023/12/26 04:46:30;;;;;;;4.90;1.33;;;;;;;3.51;100.00;92857.88;2085643;27;20023;-79
2023/12/26 04:47:31;;;;;;;6.00;1.13;;;;;;;3.57;100.00;92860.91;2082550;27;20109;-80
2023/12/26 04:48:32;;;;;;;4.47;1.33;;;;;;;3.59;100.00;92859.41;2100118;27;20035;-80
2023/12/26 04:49:33;;;;;;;3.72;1.33;;;;;;;3.69;100.00;92858.66;2106446;27;20114;-79
2023/12/26 04:50:35;;;;;;;2.47;1.33;;;;;;;3.90;100.00;92857.88;2097789;27;20024;-80
2023/12/26 04:51:36;;;;;;;1.67;1.20;;;;;;;4.44;100.00;92860.44;2078602;28;20033;-79